createdAt,value
2017-10-28T00:00:50.897Z,10.45
2017-10-28T00:01:50.891Z,10.56
2017-10-28T00:02:50.874Z,10.48
2017-10-28T00:03:50.876Z,10.51
2017-10-28T00:04:50.859Z,10.44
2017-10-28T00:05:50.525Z,10.45
2017-10-28T00:06:50.841Z,10.47
2017-10-28T00:07:50.832Z,10.45
2017-10-28T00:08:50.503Z,10.47
2017-10-28T00:09:50.817Z,10.48
2017-10-28T00:10:50.803Z,10.47
2017-10-28T00:11:50.472Z,10.45
2017-10-28T00:12:50.791Z,10.44
2017-10-28T00:13:50.783Z,10.44
2017-10-28T00:14:50.775Z,10.4
2017-10-28T00:15:50.436Z,10.45
2017-10-28T00:16:50.428Z,10.48
2017-10-28T00:17:50.738Z,10.44
2017-10-28T00:18:50.742Z,10.42
2017-10-28T00:19:50.721Z,10.47
2017-10-28T00:20:50.713Z,10.52
2017-10-28T00:21:50.702Z,10.45
2017-10-28T00:22:50.690Z,10.51
2017-10-28T00:23:50.359Z,10.53
2017-10-28T00:24:50.674Z,10.56
2017-10-28T00:25:50.670Z,10.59
2017-10-28T00:26:50.341Z,10.6
2017-10-28T00:27:50.649Z,10.59
2017-10-28T00:28:50.637Z,10.68
2017-10-28T00:29:50.309Z,10.68
2017-10-28T00:30:50.621Z,10.71
2017-10-28T00:31:50.306Z,10.67
2017-10-28T00:32:50.603Z,10.73
2017-10-28T00:33:50.268Z,10.71
2017-10-28T00:34:50.602Z,10.78
2017-10-28T00:35:50.255Z,10.73
2017-10-28T00:36:50.238Z,10.79
2017-10-28T00:37:50.563Z,10.85
2017-10-28T00:38:50.225Z,10.82
2017-10-28T00:39:50.217Z,10.92
2017-10-28T00:40:50.530Z,10.91
2017-10-28T00:41:50.535Z,10.84
2017-10-28T00:42:50.508Z,10.89
2017-10-28T00:43:50.511Z,10.91
2017-10-28T00:44:50.493Z,10.96
2017-10-28T00:45:50.488Z,10.85
2017-10-28T00:46:50.470Z,10.94
2017-10-28T00:47:50.466Z,10.97
2017-10-28T00:48:50.455Z,11.03
2017-10-28T00:49:50.445Z,11.06
2017-10-28T00:50:50.434Z,10.99
2017-10-28T00:51:50.426Z,11.07
2017-10-28T00:52:50.422Z,11.07
2017-10-28T00:53:50.407Z,11.04
2017-10-28T00:54:50.400Z,11.1
2017-10-28T00:55:50.649Z,11.06
2017-10-28T00:56:50.386Z,11.07
2017-10-28T00:57:50.050Z,11.1
2017-10-28T00:58:50.370Z,11.07
2017-10-28T00:59:50.359Z,11.03
2017-10-28T01:00:50.024Z,11.03
2017-10-28T01:01:50.348Z,11.04
2017-10-28T01:02:50.008Z,11.03
2017-10-28T01:03:50.326Z,11.04
2017-10-28T01:04:50.316Z,11.14
2017-10-28T01:05:50.606Z,11.07
2017-10-28T01:06:50.307Z,11.06
2017-10-28T01:07:50.286Z,11.1
2017-10-28T01:08:50.277Z,11.07
2017-10-28T01:09:49.954Z,11.03
2017-10-28T01:10:49.936Z,11.15
2017-10-28T01:11:49.929Z,11.15
2017-10-28T01:12:50.246Z,11.21
2017-10-28T01:13:50.229Z,11.22
2017-10-28T01:14:50.225Z,11.24
2017-10-28T01:15:49.899Z,11.24
2017-10-28T01:16:49.885Z,11.29
2017-10-28T01:17:50.198Z,11.27
2017-10-28T01:18:50.185Z,11.29
2017-10-28T01:19:50.177Z,11.25
2017-10-28T01:20:50.170Z,11.22
2017-10-28T01:21:49.843Z,11.22
2017-10-28T01:22:50.148Z,11.33
2017-10-28T01:23:50.140Z,11.32
2017-10-28T01:24:49.811Z,11.29
2017-10-28T01:25:50.128Z,11.24
2017-10-28T01:26:50.046Z,11.33
2017-10-28T01:27:50.106Z,11.35
2017-10-28T01:28:49.776Z,11.43
2017-10-28T01:29:50.086Z,11.42
2017-10-28T01:30:50.077Z,11.4
2017-10-28T01:31:50.071Z,11.42
2017-10-28T01:32:50.074Z,11.42
2017-10-28T01:33:50.056Z,11.46
2017-10-28T01:34:49.721Z,11.36
2017-10-28T01:35:50.032Z,11.42
2017-10-28T01:36:49.703Z,11.36
2017-10-28T01:37:50.019Z,11.4
2017-10-28T01:38:50.020Z,11.43
2017-10-28T01:39:50.006Z,11.35
2017-10-28T01:40:49.993Z,11.37
2017-10-28T01:41:49.984Z,11.37
2017-10-28T01:42:49.653Z,11.4
2017-10-28T01:43:49.966Z,11.39
2017-10-28T01:44:49.964Z,11.39
2017-10-28T01:45:49.630Z,11.43
2017-10-28T01:46:49.939Z,11.49
2017-10-28T01:47:49.942Z,11.42
2017-10-28T01:48:49.924Z,11.4
2017-10-28T01:49:49.919Z,11.37
2017-10-28T01:50:49.911Z,11.39
2017-10-28T01:51:49.909Z,11.29
2017-10-28T01:52:49.569Z,11.42
2017-10-28T01:53:49.881Z,11.4
2017-10-28T01:54:49.874Z,11.43
2017-10-28T01:55:49.538Z,11.33
2017-10-28T01:56:49.855Z,11.35
2017-10-28T01:57:49.773Z,11.4
2017-10-28T01:58:49.511Z,11.42
2017-10-28T01:59:49.829Z,11.37
2017-10-28T02:00:49.817Z,11.42
2017-10-28T02:01:49.807Z,11.46
2017-10-28T02:02:49.800Z,11.4
2017-10-28T02:03:49.789Z,11.36
2017-10-28T02:04:49.461Z,11.43
2017-10-28T02:05:49.773Z,11.46
2017-10-28T02:06:49.769Z,11.44
2017-10-28T02:07:49.435Z,11.36
2017-10-28T02:08:49.751Z,11.43
2017-10-28T02:09:49.737Z,11.32
2017-10-28T02:10:49.734Z,11.35
2017-10-28T02:11:49.726Z,11.27
2017-10-28T02:12:49.712Z,11.24
2017-10-28T02:13:49.383Z,11.32
2017-10-28T02:14:49.698Z,11.27
2017-10-28T02:15:49.689Z,11.28
2017-10-28T02:16:49.694Z,11.25
2017-10-28T02:17:49.347Z,11.17
2017-10-28T02:18:49.691Z,11.06
2017-10-28T02:19:49.668Z,11.15
2017-10-28T02:20:49.648Z,11.06
2017-10-28T02:21:49.634Z,11.04
2017-10-28T02:22:49.637Z,10.96
2017-10-28T02:23:49.618Z,11.06
2017-10-28T02:24:49.605Z,10.88
2017-10-28T02:25:49.603Z,11.02
2017-10-28T02:26:49.585Z,11.03
2017-10-28T02:27:48.935Z,10.86
2017-10-28T02:28:49.593Z,10.91
2017-10-28T02:29:49.563Z,10.89
2017-10-28T02:30:49.583Z,10.91
2017-10-28T02:31:49.554Z,10.91
2017-10-28T02:32:49.537Z,10.88
2017-10-28T02:33:49.526Z,10.89
2017-10-28T02:34:49.523Z,10.86
2017-10-28T02:35:49.186Z,10.86
2017-10-28T02:36:49.513Z,10.82
2017-10-28T02:37:49.496Z,10.79
2017-10-28T02:38:49.483Z,10.81
2017-10-28T02:39:49.478Z,10.78
2017-10-28T02:40:49.470Z,10.76
2017-10-28T02:41:49.466Z,10.84
2017-10-28T02:42:49.462Z,10.73
2017-10-28T02:43:49.438Z,10.79
2017-10-28T02:44:49.110Z,10.86
2017-10-28T02:45:49.428Z,10.76
2017-10-28T02:46:49.408Z,10.79
2017-10-28T02:47:49.404Z,10.78
2017-10-28T02:48:49.071Z,10.82
2017-10-28T02:49:49.392Z,10.79
2017-10-28T02:50:49.050Z,10.86
2017-10-28T02:51:49.367Z,10.84
2017-10-28T02:52:49.355Z,10.82
2017-10-28T02:53:49.024Z,10.89
2017-10-28T02:54:49.343Z,10.86
2017-10-28T02:55:49.327Z,10.86
2017-10-28T02:56:49.319Z,10.81
2017-10-28T02:57:48.991Z,10.79
2017-10-28T02:58:49.303Z,10.71
2017-10-28T02:59:48.974Z,10.78
2017-10-28T03:00:49.283Z,10.74
2017-10-28T03:01:49.275Z,10.73
2017-10-28T03:02:48.943Z,10.67
2017-10-28T03:03:49.255Z,10.67
2017-10-28T03:04:48.924Z,10.67
2017-10-28T03:05:49.238Z,10.53
2017-10-28T03:06:49.227Z,10.55
2017-10-28T03:07:48.897Z,10.59
2017-10-28T03:08:49.209Z,10.56
2017-10-28T03:09:49.202Z,10.59
2017-10-28T03:10:49.189Z,10.51
2017-10-28T03:11:48.862Z,10.51
2017-10-28T03:12:49.173Z,10.53
2017-10-28T03:13:48.842Z,10.47
2017-10-28T03:14:48.509Z,10.47
2017-10-28T03:15:49.160Z,10.47
2017-10-28T03:16:48.812Z,10.51
2017-10-28T03:17:49.164Z,10.48
2017-10-28T03:18:49.123Z,10.47
2017-10-28T03:19:49.109Z,10.47
2017-10-28T03:20:48.456Z,10.51
2017-10-28T03:21:49.091Z,10.63
2017-10-28T03:22:49.099Z,10.55
2017-10-28T03:23:49.074Z,10.53
2017-10-28T03:24:49.062Z,10.45
2017-10-28T03:25:49.060Z,10.53
2017-10-28T03:26:48.730Z,10.56
2017-10-28T03:27:49.034Z,10.53
2017-10-28T03:28:49.029Z,10.59
2017-10-28T03:29:49.018Z,10.59
2017-10-28T03:30:49.013Z,10.56
2017-10-28T03:31:48.997Z,10.59
2017-10-28T03:32:48.995Z,10.55
2017-10-28T03:33:48.979Z,10.55
2017-10-28T03:34:48.974Z,10.47
2017-10-28T03:35:48.965Z,10.4
2017-10-28T03:36:48.951Z,10.42
2017-10-28T03:37:48.949Z,10.44
2017-10-28T03:38:48.940Z,10.45
2017-10-28T03:39:48.921Z,10.47
2017-10-28T03:40:48.597Z,10.44
2017-10-28T03:41:48.910Z,10.45
2017-10-28T03:42:48.898Z,10.42
2017-10-28T03:43:48.890Z,10.44
2017-10-28T03:44:48.885Z,10.4
2017-10-28T03:45:48.868Z,10.44
2017-10-28T03:46:48.862Z,10.45
2017-10-28T03:47:48.847Z,10.45
2017-10-28T03:48:48.848Z,10.44
2017-10-28T03:49:48.828Z,10.45
2017-10-28T03:50:48.821Z,10.45
2017-10-28T03:51:48.812Z,10.47
2017-10-28T03:52:48.814Z,10.47
2017-10-28T03:53:48.801Z,10.45
2017-10-28T03:54:48.787Z,10.45
2017-10-28T03:55:48.451Z,10.52
2017-10-28T03:56:48.764Z,10.45
2017-10-28T03:57:48.757Z,10.44
2017-10-28T03:58:48.424Z,10.44
2017-10-28T03:59:48.749Z,10.47
2017-10-28T04:00:48.083Z,10.47
2017-10-28T04:01:48.730Z,10.4
2017-10-28T04:02:48.724Z,10.41
2017-10-28T04:03:48.379Z,10.38
2017-10-28T04:04:48.690Z,10.41
2017-10-28T04:05:48.400Z,10.4
2017-10-28T04:06:48.672Z,10.34
2017-10-28T04:07:48.662Z,10.36
2017-10-28T04:08:48.330Z,10.42
2017-10-28T04:09:48.648Z,10.44
2017-10-28T04:10:48.314Z,10.38
2017-10-28T04:11:48.627Z,10.44
2017-10-28T04:12:48.303Z,10.44
2017-10-28T04:13:48.295Z,10.48
2017-10-28T04:14:48.598Z,10.34
2017-10-28T04:15:48.595Z,10.42
2017-10-28T04:16:48.576Z,10.45
2017-10-28T04:17:48.573Z,10.36
2017-10-28T04:18:48.240Z,10.34
2017-10-28T04:19:48.564Z,10.34
2017-10-28T04:20:48.221Z,10.36
2017-10-28T04:21:48.210Z,10.42
2017-10-28T04:22:48.202Z,10.38
2017-10-28T04:23:48.192Z,10.4
2017-10-28T04:24:48.511Z,10.36
2017-10-28T04:25:48.174Z,10.4
2017-10-28T04:26:48.176Z,10.41
2017-10-28T04:27:48.155Z,10.36
2017-10-28T04:28:48.469Z,10.41
2017-10-28T04:29:48.460Z,10.33
2017-10-28T04:30:48.452Z,10.36
2017-10-28T04:31:48.449Z,10.41
2017-10-28T04:32:48.104Z,10.29
2017-10-28T04:33:48.351Z,10.33
2017-10-28T04:34:48.410Z,10.34
2017-10-28T04:35:48.406Z,10.42
2017-10-28T04:36:48.078Z,10.32
2017-10-28T04:37:48.387Z,10.33
2017-10-28T04:38:48.369Z,10.41
2017-10-28T04:39:48.368Z,10.34
2017-10-28T04:40:48.352Z,10.38
2017-10-28T04:41:48.346Z,10.36
2017-10-28T04:42:48.345Z,10.33
2017-10-28T04:43:48.336Z,10.3
2017-10-28T04:44:48.317Z,10.36
2017-10-28T04:45:48.308Z,10.3
2017-10-28T04:46:47.979Z,10.27
2017-10-28T04:47:48.294Z,10.26
2017-10-28T04:48:48.279Z,10.41
2017-10-28T04:49:48.287Z,10.4
2017-10-28T04:50:47.938Z,10.25
2017-10-28T04:51:48.256Z,10.36
2017-10-28T04:52:48.245Z,10.32
2017-10-28T04:53:48.233Z,10.34
2017-10-28T04:54:48.226Z,10.36
2017-10-28T04:55:48.227Z,10.32
2017-10-28T04:56:47.561Z,10.32
2017-10-28T04:57:48.199Z,10.18
2017-10-28T04:58:48.186Z,10.18
2017-10-28T04:59:48.184Z,10.25
2017-10-28T05:00:48.174Z,10.23
2017-10-28T05:01:48.164Z,10.22
2017-10-28T05:02:48.153Z,10.26
2017-10-28T05:03:48.141Z,10.32
2017-10-28T05:04:48.394Z,10.22
2017-10-28T05:05:48.124Z,10.32
2017-10-28T05:06:48.112Z,10.34
2017-10-28T05:07:48.112Z,10.29
2017-10-28T05:08:48.094Z,10.3
2017-10-28T05:09:48.087Z,10.26
2017-10-28T05:10:47.756Z,10.32
2017-10-28T05:11:48.066Z,10.32
2017-10-28T05:12:48.057Z,10.34
2017-10-28T05:13:47.738Z,10.33
2017-10-28T05:14:48.033Z,10.27
2017-10-28T05:15:48.027Z,10.27
2017-10-28T05:16:47.698Z,10.29
2017-10-28T05:17:47.685Z,10.3
2017-10-28T05:18:47.996Z,10.32
2017-10-28T05:19:48.006Z,10.34
2017-10-28T05:20:47.980Z,10.3
2017-10-28T05:21:47.970Z,10.2
2017-10-28T05:22:47.641Z,10.26
2017-10-28T05:23:47.957Z,10.26
2017-10-28T05:24:47.627Z,10.29
2017-10-28T05:25:47.938Z,10.32
2017-10-28T05:26:47.937Z,10.32
2017-10-28T05:27:47.915Z,10.29
2017-10-28T05:28:47.904Z,10.32
2017-10-28T05:29:47.574Z,10.34
2017-10-28T05:30:47.889Z,10.32
2017-10-28T05:31:47.554Z,10.36
2017-10-28T05:32:47.876Z,10.27
2017-10-28T05:33:47.541Z,10.32
2017-10-28T05:34:47.848Z,10.27
2017-10-28T05:35:48.094Z,10.34
2017-10-28T05:36:47.836Z,10.32
2017-10-28T05:37:47.823Z,10.34
2017-10-28T05:38:47.491Z,10.32
2017-10-28T05:39:47.811Z,10.36
2017-10-28T05:40:47.791Z,10.34
2017-10-28T05:41:47.785Z,10.36
2017-10-28T05:42:47.774Z,10.33
2017-10-28T05:43:47.439Z,10.4
2017-10-28T05:44:47.752Z,10.45
2017-10-28T05:45:47.426Z,10.45
2017-10-28T05:46:47.758Z,10.47
2017-10-28T05:47:47.731Z,10.48
2017-10-28T05:48:47.400Z,10.41
2017-10-28T05:49:47.709Z,10.4
2017-10-28T05:50:47.692Z,10.41
2017-10-28T05:51:47.692Z,10.41
2017-10-28T05:52:47.681Z,10.42
2017-10-28T05:53:47.666Z,10.45
2017-10-28T05:54:47.341Z,10.52
2017-10-28T05:55:47.650Z,10.47
2017-10-28T05:56:47.641Z,10.4
2017-10-28T05:57:47.632Z,10.47
2017-10-28T05:58:47.300Z,10.61
2017-10-28T05:59:47.616Z,10.55
2017-10-28T06:00:47.607Z,10.56
2017-10-28T06:01:47.598Z,10.53
2017-10-28T06:02:47.585Z,10.55
2017-10-28T06:03:47.579Z,10.53
2017-10-28T06:04:47.581Z,10.68
2017-10-28T06:05:47.557Z,10.63
2017-10-28T06:06:47.226Z,10.68
2017-10-28T06:07:47.537Z,10.63
2017-10-28T06:08:47.544Z,10.64
2017-10-28T06:09:47.530Z,10.7
2017-10-28T06:10:47.542Z,10.73
2017-10-28T06:11:47.502Z,10.74
2017-10-28T06:12:47.492Z,10.67
2017-10-28T06:13:47.507Z,10.74
2017-10-28T06:14:47.474Z,10.76
2017-10-28T06:15:47.463Z,10.71
2017-10-28T06:16:47.459Z,10.74
2017-10-28T06:17:47.461Z,10.67
2017-10-28T06:18:47.439Z,10.73
2017-10-28T06:19:47.434Z,10.73
2017-10-28T06:20:47.417Z,10.73
2017-10-28T06:21:47.416Z,10.76
2017-10-28T06:22:47.401Z,10.74
2017-10-28T06:23:47.395Z,10.73
2017-10-28T06:24:47.060Z,10.7
2017-10-28T06:25:47.372Z,10.84
2017-10-28T06:26:47.366Z,10.7
2017-10-28T06:27:47.032Z,10.74
2017-10-28T06:28:47.394Z,10.73
2017-10-28T06:29:47.015Z,10.79
2017-10-28T06:30:47.328Z,10.74
2017-10-28T06:31:46.999Z,10.78
2017-10-28T06:32:47.311Z,10.73
2017-10-28T06:33:47.301Z,10.74
2017-10-28T06:34:46.970Z,10.74
2017-10-28T06:35:47.285Z,10.81
2017-10-28T06:36:47.271Z,10.84
2017-10-28T06:37:47.275Z,10.89
2017-10-28T06:38:47.253Z,10.88
2017-10-28T06:39:47.247Z,10.96
2017-10-28T06:40:46.924Z,10.85
2017-10-28T06:41:46.904Z,10.92
2017-10-28T06:42:47.220Z,10.91
2017-10-28T06:43:47.211Z,10.88
2017-10-28T06:44:47.205Z,10.84
2017-10-28T06:45:46.545Z,10.91
2017-10-28T06:46:47.183Z,10.97
2017-10-28T06:47:46.850Z,10.89
2017-10-28T06:48:47.163Z,10.85
2017-10-28T06:49:47.157Z,10.96
2017-10-28T06:50:47.160Z,10.89
2017-10-28T06:51:47.149Z,10.89
2017-10-28T06:52:47.133Z,10.86
2017-10-28T06:53:46.799Z,10.88
2017-10-28T06:54:47.108Z,10.99
2017-10-28T06:55:47.101Z,11.06
2017-10-28T06:56:46.780Z,10.88
2017-10-28T06:57:47.081Z,10.99
2017-10-28T06:58:47.082Z,11.04
2017-10-28T06:59:47.066Z,11.03
2017-10-28T07:00:47.060Z,11.1
2017-10-28T07:01:47.046Z,11.07
2017-10-28T07:02:47.034Z,11.14
2017-10-28T07:03:47.027Z,11.25
2017-10-28T07:04:47.017Z,11.25
2017-10-28T07:05:47.016Z,11.25
2017-10-28T07:06:46.680Z,11.28
2017-10-28T07:07:46.999Z,11.4
2017-10-28T07:08:46.993Z,11.51
2017-10-28T07:09:46.981Z,11.47
2017-10-28T07:10:46.643Z,11.51
2017-10-28T07:11:47.004Z,11.49
2017-10-28T07:12:46.627Z,11.55
2017-10-28T07:13:46.943Z,11.61
2017-10-28T07:14:46.611Z,11.57
2017-10-28T07:15:46.960Z,11.58
2017-10-28T07:16:46.602Z,11.49
2017-10-28T07:17:46.910Z,11.65
2017-10-28T07:18:46.576Z,11.58
2017-10-28T07:19:46.569Z,11.52
2017-10-28T07:20:46.886Z,11.72
2017-10-28T07:21:46.552Z,11.76
2017-10-28T07:22:46.870Z,11.72
2017-10-28T07:23:46.861Z,11.67
2017-10-28T07:24:46.856Z,11.67
2017-10-28T07:25:46.527Z,11.7
2017-10-28T07:26:46.830Z,11.72
2017-10-28T07:27:46.843Z,11.69
2017-10-28T07:28:46.817Z,11.73
2017-10-28T07:29:46.483Z,11.75
2017-10-28T07:30:46.475Z,11.69
2017-10-28T07:31:46.792Z,11.76
2017-10-28T07:32:46.778Z,11.78
2017-10-28T07:33:46.781Z,11.7
2017-10-28T07:34:46.767Z,11.69
2017-10-28T07:35:46.758Z,11.72
2017-10-28T07:36:46.748Z,11.76
2017-10-28T07:37:46.740Z,11.8
2017-10-28T07:38:46.734Z,11.76
2017-10-28T07:39:46.730Z,11.82
2017-10-28T07:40:46.396Z,11.8
2017-10-28T07:41:46.381Z,11.86
2017-10-28T07:42:46.373Z,11.79
2017-10-28T07:43:46.688Z,11.83
2017-10-28T07:44:46.678Z,11.8
2017-10-28T07:45:46.678Z,11.76
2017-10-28T07:46:46.660Z,11.85
2017-10-28T07:47:46.651Z,11.82
2017-10-28T07:48:46.654Z,11.82
2017-10-28T07:49:46.640Z,11.88
2017-10-28T07:50:46.630Z,11.8
2017-10-28T07:51:45.973Z,11.9
2017-10-28T07:52:46.609Z,11.95
2017-10-28T07:53:46.285Z,11.91
2017-10-28T07:54:46.602Z,11.94
2017-10-28T07:55:46.591Z,11.95
2017-10-28T07:56:46.578Z,12.01
2017-10-28T07:57:46.570Z,12.02
2017-10-28T07:58:46.561Z,12.01
2017-10-28T07:59:46.554Z,12.05
2017-10-28T08:00:46.223Z,12.19
2017-10-28T08:01:46.546Z,12.1
2017-10-28T08:02:46.538Z,12.07
2017-10-28T08:03:46.198Z,12.04
2017-10-28T08:04:46.519Z,12.13
2017-10-28T08:05:46.184Z,12.17
2017-10-28T08:06:46.173Z,12.14
2017-10-28T08:07:46.502Z,12.14
2017-10-28T08:08:46.476Z,12.12
2017-10-28T08:09:46.151Z,12.2
2017-10-28T08:10:46.468Z,12.13
2017-10-28T08:11:46.709Z,12.21
2017-10-28T08:12:46.452Z,12.13
2017-10-28T08:13:46.438Z,12.17
2017-10-28T08:14:46.438Z,12.2
2017-10-28T08:15:46.426Z,12.12
2017-10-28T08:16:46.418Z,12.1
2017-10-28T08:17:46.410Z,12.13
2017-10-28T08:18:46.401Z,12.16
2017-10-28T08:19:46.397Z,12.2
2017-10-28T08:20:46.063Z,12.12
2017-10-28T08:21:46.055Z,12.29
2017-10-28T08:22:46.366Z,12.27
2017-10-28T08:23:46.368Z,12.27
2017-10-28T08:24:46.350Z,12.28
2017-10-28T08:25:46.345Z,12.32
2017-10-28T08:26:46.024Z,12.31
2017-10-28T08:27:46.009Z,12.27
2017-10-28T08:28:46.321Z,12.29
2017-10-28T08:29:46.312Z,12.27
2017-10-28T08:30:46.303Z,12.23
2017-10-28T08:31:46.297Z,12.34
2017-10-28T08:32:46.290Z,12.24
2017-10-28T08:33:46.281Z,12.29
2017-10-28T08:34:45.948Z,12.19
2017-10-28T08:35:46.265Z,12.16
2017-10-28T08:36:46.257Z,12.19
2017-10-28T08:37:45.929Z,12.14
2017-10-28T08:38:45.917Z,12.17
2017-10-28T08:39:46.234Z,12.2
2017-10-28T08:40:46.227Z,12.17
2017-10-28T08:41:45.897Z,12.2
2017-10-28T08:42:46.138Z,12.2
2017-10-28T08:43:45.880Z,12.23
2017-10-28T08:44:45.871Z,12.16
2017-10-28T08:45:46.181Z,12.19
2017-10-28T08:46:46.182Z,12.13
2017-10-28T08:47:46.165Z,12.19
2017-10-28T08:48:46.167Z,12.21
2017-10-28T08:49:46.149Z,12.19
2017-10-28T08:50:46.141Z,12.23
2017-10-28T08:51:46.138Z,12.23
2017-10-28T08:52:46.122Z,12.14
2017-10-28T08:53:46.117Z,12.21
2017-10-28T08:54:46.109Z,12.27
2017-10-28T08:55:45.456Z,12.34
2017-10-28T08:56:46.093Z,12.35
2017-10-28T08:57:46.086Z,12.39
2017-10-28T08:58:46.078Z,12.45
2017-10-28T08:59:45.745Z,12.49
2017-10-28T09:00:46.064Z,12.47
2017-10-28T09:01:45.730Z,12.45
2017-10-28T09:02:46.043Z,12.59
2017-10-28T09:03:46.041Z,12.54
2017-10-28T09:04:46.032Z,12.56
2017-10-28T09:05:45.701Z,12.56
2017-10-28T09:06:45.696Z,12.59
2017-10-28T09:07:46.004Z,12.67
2017-10-28T09:08:46.250Z,12.68
2017-10-28T09:09:45.667Z,12.68
2017-10-28T09:10:46.013Z,12.68
2017-10-28T09:11:45.977Z,12.65
2017-10-28T09:12:45.980Z,12.68
2017-10-28T09:13:45.638Z,12.67
2017-10-28T09:14:45.628Z,12.65
2017-10-28T09:15:45.942Z,12.77
2017-10-28T09:16:45.932Z,12.75
2017-10-28T09:17:45.931Z,12.72
2017-10-28T09:18:45.919Z,12.86
2017-10-28T09:19:45.925Z,12.87
2017-10-28T09:20:45.914Z,12.83
2017-10-28T09:21:45.901Z,12.85
2017-10-28T09:22:45.568Z,12.9
2017-10-28T09:23:45.905Z,12.82
2017-10-28T09:24:45.874Z,12.9
2017-10-28T09:25:45.546Z,12.87
2017-10-28T09:26:45.867Z,12.87
2017-10-28T09:27:45.531Z,12.97
2017-10-28T09:28:45.521Z,12.93
2017-10-28T09:29:45.837Z,12.97
2017-10-28T09:30:45.847Z,13
2017-10-28T09:31:45.820Z,12.97
2017-10-28T09:32:45.811Z,12.96
2017-10-28T09:33:45.486Z,13
2017-10-28T09:34:45.478Z,13.01
2017-10-28T09:35:45.467Z,13.01
2017-10-28T09:36:45.795Z,13.01
2017-10-28T09:37:45.775Z,12.95
2017-10-28T09:38:45.774Z,12.86
2017-10-28T09:39:45.759Z,12.87
2017-10-28T09:40:45.750Z,12.74
2017-10-28T09:41:45.754Z,12.74
2017-10-28T09:42:45.742Z,12.75
2017-10-28T09:43:45.737Z,12.78
2017-10-28T09:44:45.975Z,12.77
2017-10-28T09:45:45.393Z,12.71
2017-10-28T09:46:45.716Z,12.79
2017-10-28T09:47:45.377Z,12.78
2017-10-28T09:48:45.690Z,12.77
2017-10-28T09:49:45.362Z,12.74
2017-10-28T09:50:45.680Z,12.72
2017-10-28T09:51:45.349Z,12.87
2017-10-28T09:52:45.663Z,12.77
2017-10-28T09:53:45.334Z,12.82
2017-10-28T09:54:45.324Z,12.87
2017-10-28T09:55:45.640Z,12.85
2017-10-28T09:56:45.631Z,13
2017-10-28T09:57:45.624Z,12.96
2017-10-28T09:58:45.616Z,13.04
2017-10-28T09:59:45.294Z,13.03
2017-10-28T10:00:45.282Z,13.11
2017-10-28T10:01:45.589Z,13.12
2017-10-28T10:02:45.588Z,13.19
2017-10-28T10:03:45.580Z,13.2
2017-10-28T10:04:45.581Z,13.2
2017-10-28T10:05:45.563Z,13.22
2017-10-28T10:06:45.241Z,13.17
2017-10-28T10:07:45.235Z,13.28
2017-10-28T10:08:45.540Z,13.26
2017-10-28T10:09:45.536Z,13.29
2017-10-28T10:10:45.208Z,13.22
2017-10-28T10:11:45.197Z,13.33
2017-10-28T10:12:45.512Z,13.23
2017-10-28T10:13:45.503Z,13.3
2017-10-28T10:14:45.175Z,13.41
2017-10-28T10:15:45.741Z,13.42
2017-10-28T10:16:45.488Z,13.33
2017-10-28T10:17:45.473Z,13.29
2017-10-28T10:18:45.472Z,13.28
2017-10-28T10:19:45.459Z,13.25
2017-10-28T10:20:45.453Z,13.25
2017-10-28T10:21:45.459Z,13.29
2017-10-28T10:22:45.443Z,13.26
2017-10-28T10:23:45.447Z,13.22
2017-10-28T10:24:45.426Z,13.25
2017-10-28T10:25:45.417Z,13.19
2017-10-28T10:26:45.094Z,13.22
2017-10-28T10:27:45.409Z,13.17
2017-10-28T10:28:45.400Z,13.19
2017-10-28T10:29:45.392Z,13.17
2017-10-28T10:30:45.379Z,13.11
2017-10-28T10:31:45.392Z,13.17
2017-10-28T10:32:45.044Z,13.14
2017-10-28T10:33:45.361Z,13.15
2017-10-28T10:34:45.351Z,13.1
2017-10-28T10:35:45.344Z,13
2017-10-28T10:36:45.334Z,13.07
2017-10-28T10:37:45.332Z,13.01
2017-10-28T10:38:45.332Z,12.96
2017-10-28T10:39:44.993Z,12.89
2017-10-28T10:40:45.311Z,12.95
2017-10-28T10:41:45.301Z,13
2017-10-28T10:42:44.972Z,13.01
2017-10-28T10:43:45.287Z,13
2017-10-28T10:44:45.280Z,12.92
2017-10-28T10:45:45.275Z,12.85
2017-10-28T10:46:44.942Z,12.9
2017-10-28T10:47:44.934Z,12.97
2017-10-28T10:48:44.925Z,12.96
2017-10-28T10:49:44.917Z,13
2017-10-28T10:50:44.918Z,12.97
2017-10-28T10:51:45.229Z,13.05
2017-10-28T10:52:45.222Z,13.08
2017-10-28T10:53:45.211Z,13.01
2017-10-28T10:54:45.208Z,12.97
2017-10-28T10:55:45.195Z,13.05
2017-10-28T10:56:44.875Z,13.1
2017-10-28T10:57:45.184Z,13.12
2017-10-28T10:58:45.173Z,13.17
2017-10-28T10:59:45.167Z,13.17
2017-10-28T11:00:45.162Z,13.19
2017-10-28T11:01:45.151Z,13.25
2017-10-28T11:02:45.150Z,13.28
2017-10-28T11:03:44.811Z,13.33
2017-10-28T11:04:45.129Z,13.39
2017-10-28T11:05:45.122Z,13.42
2017-10-28T11:06:45.116Z,13.39
2017-10-28T11:07:44.459Z,13.42
2017-10-28T11:08:45.108Z,13.39
2017-10-28T11:09:45.091Z,13.36
2017-10-28T11:10:44.764Z,13.54
2017-10-28T11:11:44.762Z,13.39
2017-10-28T11:12:45.086Z,13.44
2017-10-28T11:13:45.066Z,13.51
2017-10-28T11:14:45.054Z,13.48
2017-10-28T11:15:44.726Z,13.42
2017-10-28T11:16:44.719Z,13.48
2017-10-28T11:17:45.049Z,13.62
2017-10-28T11:18:45.038Z,13.59
2017-10-28T11:19:44.902Z,13.54
2017-10-28T11:20:44.694Z,13.54
2017-10-28T11:21:45.002Z,13.54
2017-10-28T11:22:44.998Z,13.55
2017-10-28T11:23:44.998Z,13.57
2017-10-28T11:24:44.986Z,13.55
2017-10-28T11:25:44.978Z,13.48
2017-10-28T11:26:44.975Z,13.42
2017-10-28T11:27:44.966Z,13.41
2017-10-28T11:28:44.970Z,13.38
2017-10-28T11:29:44.626Z,13.44
2017-10-28T11:30:44.946Z,13.39
2017-10-28T11:31:44.940Z,13.39
2017-10-28T11:32:44.929Z,13.36
2017-10-28T11:33:44.922Z,13.33
2017-10-28T11:34:44.595Z,13.23
2017-10-28T11:35:44.931Z,13.22
2017-10-28T11:36:44.922Z,13.25
2017-10-28T11:37:44.576Z,13.33
2017-10-28T11:38:44.887Z,13.28
2017-10-28T11:39:44.558Z,13.25
2017-10-28T11:40:44.547Z,13.22
2017-10-28T11:41:44.866Z,13.23
2017-10-28T11:42:44.859Z,13.3
2017-10-28T11:43:44.850Z,13.15
2017-10-28T11:44:44.839Z,13.11
2017-10-28T11:45:44.836Z,13.15
2017-10-28T11:46:44.824Z,13.11
2017-10-28T11:47:44.824Z,13.1
2017-10-28T11:48:44.496Z,13.11
2017-10-28T11:49:44.746Z,13
2017-10-28T11:50:44.811Z,12.96
2017-10-28T11:51:44.790Z,13
2017-10-28T11:52:44.790Z,13.05
2017-10-28T11:53:44.465Z,12.97
2017-10-28T11:54:44.770Z,13.04
2017-10-28T11:55:44.760Z,13.15
2017-10-28T11:56:44.752Z,13.03
2017-10-28T11:57:44.745Z,13.07
2017-10-28T11:58:44.737Z,13.11
2017-10-28T11:59:44.732Z,13.11
2017-10-28T12:00:44.724Z,13.01
2017-10-28T12:01:44.735Z,13.11
2017-10-28T12:02:44.709Z,13.14
2017-10-28T12:03:44.715Z,13.17
2017-10-28T12:04:44.692Z,13.2
2017-10-28T12:05:44.685Z,13.15
2017-10-28T12:06:44.680Z,13.23
2017-10-28T12:07:44.668Z,13.19
2017-10-28T12:08:44.341Z,13.14
2017-10-28T12:09:44.677Z,13.14
2017-10-28T12:10:44.647Z,13.22
2017-10-28T12:11:44.642Z,13.19
2017-10-28T12:12:44.634Z,13.19
2017-10-28T12:13:44.635Z,13.2
2017-10-28T12:14:44.621Z,13.23
2017-10-28T12:15:44.615Z,13.19
2017-10-28T12:16:44.659Z,13.22
2017-10-28T12:17:44.597Z,13.2
2017-10-28T12:18:44.596Z,13.25
2017-10-28T12:19:44.581Z,13.26
2017-10-28T12:20:44.824Z,13.28
2017-10-28T12:21:44.247Z,13.25
2017-10-28T12:22:44.561Z,13.32
2017-10-28T12:23:44.552Z,13.23
2017-10-28T12:24:44.229Z,13.32
2017-10-28T12:25:44.215Z,13.22
2017-10-28T12:26:44.527Z,13.2
2017-10-28T12:27:44.529Z,13.25
2017-10-28T12:28:44.518Z,13.28
2017-10-28T12:29:44.507Z,13.3
2017-10-28T12:30:44.176Z,13.25
2017-10-28T12:31:44.493Z,13.2
2017-10-28T12:32:44.489Z,13.22
2017-10-28T12:33:44.477Z,13.22
2017-10-28T12:34:44.471Z,13.19
2017-10-28T12:35:44.474Z,13.2
2017-10-28T12:36:44.137Z,13.23
2017-10-28T12:37:44.446Z,13.11
2017-10-28T12:38:44.451Z,13.28
2017-10-28T12:39:44.435Z,13.25
2017-10-28T12:40:44.425Z,13.2
2017-10-28T12:41:44.419Z,13.32
2017-10-28T12:42:44.117Z,13.29
2017-10-28T12:43:44.409Z,13.38
2017-10-28T12:44:44.079Z,13.23
2017-10-28T12:45:44.391Z,13.36
2017-10-28T12:46:44.387Z,13.23
2017-10-28T12:47:44.375Z,13.38
2017-10-28T12:48:44.369Z,13.32
2017-10-28T12:49:44.358Z,13.23
2017-10-28T12:50:44.352Z,13.32
2017-10-28T12:51:44.276Z,13.29
2017-10-28T12:52:44.015Z,13.36
2017-10-28T12:53:44.338Z,13.39
2017-10-28T12:54:44.322Z,13.33
2017-10-28T12:55:43.994Z,13.46